sensor_id;sensor_type;location;lat;lon;timestamp;temperature;humidity
72604;DHT22;60645;56.968;24.196;2022-10-17T00:02:15;19.80;62.90
72604;DHT22;60645;56.968;24.196;2022-10-17T00:04:52;19.80;62.90
72604;DHT22;60645;56.968;24.196;2022-10-17T00:08:01;19.90;62.90
72604;DHT22;60645;56.968;24.196;2022-10-17T00:11:26;19.80;62.90
72604;DHT22;60645;56.968;24.196;2022-10-17T00:14:28;19.80;63.00
72604;DHT22;60645;56.968;24.196;2022-10-17T00:17:18;19.80;62.90
72604;DHT22;60645;56.968;24.196;2022-10-17T00:20:15;19.80;62.90
72604;DHT22;60645;56.968;24.196;2022-10-17T00:22:59;19.80;63.00
72604;DHT22;60645;56.968;24.196;2022-10-17T00:25:39;19.90;62.90
72604;DHT22;60645;56.968;24.196;2022-10-17T00:28:25;19.80;63.20
72604;DHT22;60645;56.968;24.196;2022-10-17T00:31:06;19.90;63.00
72604;DHT22;60645;56.968;24.196;2022-10-17T00:33:54;19.80;62.90
72604;DHT22;60645;56.968;24.196;2022-10-17T00:36:59;19.80;63.00
72604;DHT22;60645;56.968;24.196;2022-10-17T00:39:49;19.80;62.90
72604;DHT22;60645;56.968;24.196;2022-10-17T00:42:37;19.80;63.00
72604;DHT22;60645;56.968;24.196;2022-10-17T00:45:31;19.70;63.00
72604;DHT22;60645;56.968;24.196;2022-10-17T00:48:48;19.80;63.00
72604;DHT22;60645;56.968;24.196;2022-10-17T00:51:49;19.80;63.10
72604;DHT22;60645;56.968;24.196;2022-10-17T00:55:00;19.80;63.10
72604;DHT22;60645;56.968;24.196;2022-10-17T00:57:57;19.80;63.10
72604;DHT22;60645;56.968;24.196;2022-10-17T01:00:43;19.80;63.10
72604;DHT22;60645;56.968;24.196;2022-10-17T01:03:16;19.80;63.10
72604;DHT22;60645;56.968;24.196;2022-10-17T01:06:16;19.70;63.10
72604;DHT22;60645;56.968;24.196;2022-10-17T01:09:03;19.70;63.10
72604;DHT22;60645;56.968;24.196;2022-10-17T01:12:37;19.70;62.90
72604;DHT22;60645;56.968;24.196;2022-10-17T01:33:12;19.70;63.20
72604;DHT22;60645;56.968;24.196;2022-10-17T01:36:00;19.70;63.10
72604;DHT22;60645;56.968;24.196;2022-10-17T01:46:02;19.60;63.20
72604;DHT22;60645;56.968;24.196;2022-10-17T01:49:05;19.60;63.00
72604;DHT22;60645;56.968;24.196;2022-10-17T01:52:18;19.60;63.30
72604;DHT22;60645;56.968;24.196;2022-10-17T01:55:19;19.60;63.20
72604;DHT22;60645;56.968;24.196;2022-10-17T01:58:27;19.70;63.30
72604;DHT22;60645;56.968;24.196;2022-10-17T02:01:45;19.60;63.20
72604;DHT22;60645;56.968;24.196;2022-10-17T02:04:25;19.70;63.40
72604;DHT22;60645;56.968;24.196;2022-10-17T02:07:23;19.60;63.30
72604;DHT22;60645;56.968;24.196;2022-10-17T02:14:13;19.60;63.10
72604;DHT22;60645;56.968;24.196;2022-10-17T02:21:14;19.60;63.30
72604;DHT22;60645;56.968;24.196;2022-10-17T02:24:57;19.60;63.40
72604;DHT22;60645;56.968;24.196;2022-10-17T02:31:42;19.70;63.30
72604;DHT22;60645;56.968;24.196;2022-10-17T02:34:51;19.60;63.30
72604;DHT22;60645;56.968;24.196;2022-10-17T02:37:53;19.70;63.20
72604;DHT22;60645;56.968;24.196;2022-10-17T02:40:41;19.60;63.20
72604;DHT22;60645;56.968;24.196;2022-10-17T02:43:23;19.60;63.20
72604;DHT22;60645;56.968;24.196;2022-10-17T02:46:18;19.60;63.30
72604;DHT22;60645;56.968;24.196;2022-10-17T02:49:38;19.60;63.30
72604;DHT22;60645;56.968;24.196;2022-10-17T02:59:02;19.60;63.30
72604;DHT22;60645;56.968;24.196;2022-10-17T03:01:49;19.60;63.10
72604;DHT22;60645;56.968;24.196;2022-10-17T03:04:37;19.60;63.20
72604;DHT22;60645;56.968;24.196;2022-10-17T03:07:32;19.60;63.30
72604;DHT22;60645;56.968;24.196;2022-10-17T03:10:31;19.60;63.40
72604;DHT22;60645;56.968;24.196;2022-10-17T03:13:29;19.50;63.40
72604;DHT22;60645;56.968;24.196;2022-10-17T03:16:31;19.60;63.50
72604;DHT22;60645;56.968;24.196;2022-10-17T03:19:18;19.50;63.30
72604;DHT22;60645;56.968;24.196;2022-10-17T03:22:08;19.60;63.30
72604;DHT22;60645;56.968;24.196;2022-10-17T03:25:00;19.60;63.40
72604;DHT22;60645;56.968;24.196;2022-10-17T03:28:16;19.60;63.30
72604;DHT22;60645;56.968;24.196;2022-10-17T03:31:36;19.60;63.60
72604;DHT22;60645;56.968;24.196;2022-10-17T03:34:56;19.60;63.40
72604;DHT22;60645;56.968;24.196;2022-10-17T03:37:58;19.50;63.50
72604;DHT22;60645;56.968;24.196;2022-10-17T03:41:03;19.60;63.30
72604;DHT22;60645;56.968;24.196;2022-10-17T03:43:45;19.60;63.50
72604;DHT22;60645;56.968;24.196;2022-10-17T03:46:41;19.50;63.50
72604;DHT22;60645;56.968;24.196;2022-10-17T03:49:48;19.50;63.50
72604;DHT22;60645;56.968;24.196;2022-10-17T03:52:47;19.60;63.40
72604;DHT22;60645;56.968;24.196;2022-10-17T03:55:25;19.50;63.70
72604;DHT22;60645;56.968;24.196;2022-10-17T03:58:40;19.60;63.40
72604;DHT22;60645;56.968;24.196;2022-10-17T04:01:39;19.50;63.30
72604;DHT22;60645;56.968;24.196;2022-10-17T04:04:44;19.50;63.40
72604;DHT22;60645;56.968;24.196;2022-10-17T04:07:20;19.50;63.40
72604;DHT22;60645;56.968;24.196;2022-10-17T04:10:37;19.60;63.20
72604;DHT22;60645;56.968;24.196;2022-10-17T04:13:27;19.50;63.50
72604;DHT22;60645;56.968;24.196;2022-10-17T04:16:17;19.60;63.30
72604;DHT22;60645;56.968;24.196;2022-10-17T04:19:15;19.60;63.50
72604;DHT22;60645;56.968;24.196;2022-10-17T04:22:17;19.50;63.40
72604;DHT22;60645;56.968;24.196;2022-10-17T04:25:09;19.50;63.50
72604;DHT22;60645;56.968;24.196;2022-10-17T04:28:15;19.50;63.30
72604;DHT22;60645;56.968;24.196;2022-10-17T04:31:20;19.50;63.40
72604;DHT22;60645;56.968;24.196;2022-10-17T04:34:30;19.50;63.40
72604;DHT22;60645;56.968;24.196;2022-10-17T04:37:25;19.60;63.20
72604;DHT22;60645;56.968;24.196;2022-10-17T04:40:32;19.50;63.20
72604;DHT22;60645;56.968;24.196;2022-10-17T04:43:45;19.60;63.30
72604;DHT22;60645;56.968;24.196;2022-10-17T04:46:35;19.60;63.30
72604;DHT22;60645;56.968;24.196;2022-10-17T04:49:42;19.50;63.40
72604;DHT22;60645;56.968;24.196;2022-10-17T04:53:04;19.60;63.10
72604;DHT22;60645;56.968;24.196;2022-10-17T04:55:56;19.50;63.40
72604;DHT22;60645;56.968;24.196;2022-10-17T04:58:47;19.50;63.50
72604;DHT22;60645;56.968;24.196;2022-10-17T05:01:33;19.50;63.40
72604;DHT22;60645;56.968;24.196;2022-10-17T05:04:30;19.60;63.30
72604;DHT22;60645;56.968;24.196;2022-10-17T05:07:38;19.50;63.30
72604;DHT22;60645;56.968;24.196;2022-10-17T05:10:43;19.50;63.40
72604;DHT22;60645;56.968;24.196;2022-10-17T05:14:02;19.60;63.40
72604;DHT22;60645;56.968;24.196;2022-10-17T05:17:14;19.50;63.20
72604;DHT22;60645;56.968;24.196;2022-10-17T05:20:46;19.60;63.20
72604;DHT22;60645;56.968;24.196;2022-10-17T05:23:39;19.70;63.20
72604;DHT22;60645;56.968;24.196;2022-10-17T05:26:18;19.60;63.10
72604;DHT22;60645;56.968;24.196;2022-10-17T05:29:11;19.70;62.70
72604;DHT22;60645;56.968;24.196;2022-10-17T05:31:57;19.70;62.60
72604;DHT22;60645;56.968;24.196;2022-10-17T05:34:51;20.00;62.50
72604;DHT22;60645;56.968;24.196;2022-10-17T05:38:15;20.00;62.10
72604;DHT22;60645;56.968;24.196;2022-10-17T05:41:14;20.20;61.80
72604;DHT22;60645;56.968;24.196;2022-10-17T05:43:47;20.20;61.60
72604;DHT22;60645;56.968;24.196;2022-10-17T05:46:47;20.40;61.20
72604;DHT22;60645;56.968;24.196;2022-10-17T05:49:35;20.50;61.00
72604;DHT22;60645;56.968;24.196;2022-10-17T05:52:43;20.60;60.70
72604;DHT22;60645;56.968;24.196;2022-10-17T05:55:38;20.70;60.40
72604;DHT22;60645;56.968;24.196;2022-10-17T05:58:44;20.90;60.00
72604;DHT22;60645;56.968;24.196;2022-10-17T06:01:45;21.00;57.30
72604;DHT22;60645;56.968;24.196;2022-10-17T06:04:39;20.80;57.30
72604;DHT22;60645;56.968;24.196;2022-10-17T06:07:43;20.70;57.40
72604;DHT22;60645;56.968;24.196;2022-10-17T06:10:42;20.50;58.40
72604;DHT22;60645;56.968;24.196;2022-10-17T06:13:28;20.40;57.70
72604;DHT22;60645;56.968;24.196;2022-10-17T06:16:27;20.20;58.60
72604;DHT22;60645;56.968;24.196;2022-10-17T06:19:15;20.30;57.90
72604;DHT22;60645;56.968;24.196;2022-10-17T06:22:25;20.40;57.50
72604;DHT22;60645;56.968;24.196;2022-10-17T06:25:19;20.40;57.30
72604;DHT22;60645;56.968;24.196;2022-10-17T06:28:13;20.50;57.40
72604;DHT22;60645;56.968;24.196;2022-10-17T06:31:15;20.60;56.60
72604;DHT22;60645;56.968;24.196;2022-10-17T06:34:14;20.80;56.40
72604;DHT22;60645;56.968;24.196;2022-10-17T06:37:13;21.10;54.80
72604;DHT22;60645;56.968;24.196;2022-10-17T06:40:15;21.00;54.90
72604;DHT22;60645;56.968;24.196;2022-10-17T06:43:02;21.10;54.80
72604;DHT22;60645;56.968;24.196;2022-10-17T06:49:08;20.90;55.40
72604;DHT22;60645;56.968;24.196;2022-10-17T06:52:21;20.70;55.90
72604;DHT22;60645;56.968;24.196;2022-10-17T06:58:29;20.40;55.90
72604;DHT22;60645;56.968;24.196;2022-10-17T07:01:27;20.30;56.50
72604;DHT22;60645;56.968;24.196;2022-10-17T07:04:50;20.20;56.70
72604;DHT22;60645;56.968;24.196;2022-10-17T07:07:49;20.10;56.80
72604;DHT22;60645;56.968;24.196;2022-10-17T07:10:57;20.00;57.40
72604;DHT22;60645;56.968;24.196;2022-10-17T07:13:48;20.00;56.90
72604;DHT22;60645;56.968;24.196;2022-10-17T07:16:39;20.00;57.10
72604;DHT22;60645;56.968;24.196;2022-10-17T07:19:26;19.90;58.50
72604;DHT22;60645;56.968;24.196;2022-10-17T07:22:28;20.10;59.90
72604;DHT22;60645;56.968;24.196;2022-10-17T07:25:19;20.30;60.70
72604;DHT22;60645;56.968;24.196;2022-10-17T07:28:08;20.50;61.80
72604;DHT22;60645;56.968;24.196;2022-10-17T07:31:25;20.50;62.50
72604;DHT22;60645;56.968;24.196;2022-10-17T07:34:19;20.60;62.50
72604;DHT22;60645;56.968;24.196;2022-10-17T07:37:03;20.60;62.60
72604;DHT22;60645;56.968;24.196;2022-10-17T07:40:00;20.70;62.80
72604;DHT22;60645;56.968;24.196;2022-10-17T07:42:42;20.70;62.80
72604;DHT22;60645;56.968;24.196;2022-10-17T07:45:43;20.70;62.60
72604;DHT22;60645;56.968;24.196;2022-10-17T07:48:32;20.90;62.60
72604;DHT22;60645;56.968;24.196;2022-10-17T07:51:33;20.90;61.80
72604;DHT22;60645;56.968;24.196;2022-10-17T07:54:58;21.00;61.10
72604;DHT22;60645;56.968;24.196;2022-10-17T07:57:51;21.00;60.50
72604;DHT22;60645;56.968;24.196;2022-10-17T08:00:59;21.00;56.50
72604;DHT22;60645;56.968;24.196;2022-10-17T08:04:07;20.70;57.00
72604;DHT22;60645;56.968;24.196;2022-10-17T08:06:51;20.30;57.50
72604;DHT22;60645;56.968;24.196;2022-10-17T08:10:01;20.10;57.30
72604;DHT22;60645;56.968;24.196;2022-10-17T08:12:48;19.80;58.50
72604;DHT22;60645;56.968;24.196;2022-10-17T08:16:06;19.70;57.70
72604;DHT22;60645;56.968;24.196;2022-10-17T08:19:11;19.60;58.30
72604;DHT22;60645;56.968;24.196;2022-10-17T08:21:46;19.70;59.20
72604;DHT22;60645;56.968;24.196;2022-10-17T08:24:20;19.90;59.00
72604;DHT22;60645;56.968;24.196;2022-10-17T08:27:17;20.10;58.20
72604;DHT22;60645;56.968;24.196;2022-10-17T08:30:15;20.30;56.60
72604;DHT22;60645;56.968;24.196;2022-10-17T08:33:15;20.60;57.10
72604;DHT22;60645;56.968;24.196;2022-10-17T08:36:18;20.90;55.60
72604;DHT22;60645;56.968;24.196;2022-10-17T08:39:23;21.20;54.80
72604;DHT22;60645;56.968;24.196;2022-10-17T08:46:05;21.30;53.90
72604;DHT22;60645;56.968;24.196;2022-10-17T08:49:13;21.60;52.90
72604;DHT22;60645;56.968;24.196;2022-10-17T08:52:41;21.70;53.40
72604;DHT22;60645;56.968;24.196;2022-10-17T08:55:46;21.90;52.80
72604;DHT22;60645;56.968;24.196;2022-10-17T08:58:46;22.00;52.50
72604;DHT22;60645;56.968;24.196;2022-10-17T09:09:41;23.40;50.60
72604;DHT22;60645;56.968;24.196;2022-10-17T09:19:38;24.20;48.30
72604;DHT22;60645;56.968;24.196;2022-10-17T09:23:00;24.30;47.40
72604;DHT22;60645;56.968;24.196;2022-10-17T09:25:58;24.50;48.20
72604;DHT22;60645;56.968;24.196;2022-10-17T09:28:52;24.90;47.00
72604;DHT22;60645;56.968;24.196;2022-10-17T09:32:12;25.20;46.30
72604;DHT22;60645;56.968;24.196;2022-10-17T09:35:10;25.50;45.40
72604;DHT22;60645;56.968;24.196;2022-10-17T09:38:24;25.70;44.80
72604;DHT22;60645;56.968;24.196;2022-10-17T09:41:57;25.80;45.10
72604;DHT22;60645;56.968;24.196;2022-10-17T09:48:40;25.50;44.90
72604;DHT22;60645;56.968;24.196;2022-10-17T09:51:50;25.40;44.80
72604;DHT22;60645;56.968;24.196;2022-10-17T09:54:53;25.70;44.40
72604;DHT22;60645;56.968;24.196;2022-10-17T09:58:03;26.10;43.50
72604;DHT22;60645;56.968;24.196;2022-10-17T10:04:19;25.30;44.20
72604;DHT22;60645;56.968;24.196;2022-10-17T10:07:13;24.60;45.20
72604;DHT22;60645;56.968;24.196;2022-10-17T10:10:23;24.00;46.40
72604;DHT22;60645;56.968;24.196;2022-10-17T10:16:31;23.90;47.30
72604;DHT22;60645;56.968;24.196;2022-10-17T10:19:36;24.10;46.00
72604;DHT22;60645;56.968;24.196;2022-10-17T10:22:31;24.20;46.90
72604;DHT22;60645;56.968;24.196;2022-10-17T10:25:32;24.30;45.40
72604;DHT22;60645;56.968;24.196;2022-10-17T10:28:28;24.50;46.10
72604;DHT22;60645;56.968;24.196;2022-10-17T10:31:41;24.60;45.70
72604;DHT22;60645;56.968;24.196;2022-10-17T10:34:35;24.50;45.20
72604;DHT22;60645;56.968;24.196;2022-10-17T10:37:41;24.40;44.50
72604;DHT22;60645;56.968;24.196;2022-10-17T10:43:44;24.20;45.80
72604;DHT22;60645;56.968;24.196;2022-10-17T10:47:25;24.00;45.40
72604;DHT22;60645;56.968;24.196;2022-10-17T10:53:55;23.70;46.50
72604;DHT22;60645;56.968;24.196;2022-10-17T10:57:01;23.40;46.20
72604;DHT22;60645;56.968;24.196;2022-10-17T11:03:30;22.90;46.40
72604;DHT22;60645;56.968;24.196;2022-10-17T11:06:27;22.60;47.40
72604;DHT22;60645;56.968;24.196;2022-10-17T11:24:37;21.70;49.60
72604;DHT22;60645;56.968;24.196;2022-10-17T11:27:07;21.60;51.20
72604;DHT22;60645;56.968;24.196;2022-10-17T11:29:53;21.50;51.80
72604;DHT22;60645;56.968;24.196;2022-10-17T11:35:48;21.40;50.40
72604;DHT22;60645;56.968;24.196;2022-10-17T11:38:59;21.40;51.10
72604;DHT22;60645;56.968;24.196;2022-10-17T11:41:53;21.20;51.70
72604;DHT22;60645;56.968;24.196;2022-10-17T11:45:04;21.00;51.40
72604;DHT22;60645;56.968;24.196;2022-10-17T11:48:09;21.00;50.70
72604;DHT22;60645;56.968;24.196;2022-10-17T11:51:14;21.00;51.50
72604;DHT22;60645;56.968;24.196;2022-10-17T12:11:28;20.40;51.30
72604;DHT22;60645;56.968;24.196;2022-10-17T12:17:58;20.60;50.60
72604;DHT22;60645;56.968;24.196;2022-10-17T12:20:59;20.70;52.20
72604;DHT22;60645;56.968;24.196;2022-10-17T12:23:58;20.80;50.40
72604;DHT22;60645;56.968;24.196;2022-10-17T12:26:50;20.80;52.10
72604;DHT22;60645;56.968;24.196;2022-10-17T12:29:36;20.90;51.10
72604;DHT22;60645;56.968;24.196;2022-10-17T12:32:25;20.80;50.60
72604;DHT22;60645;56.968;24.196;2022-10-17T12:39:41;20.70;51.20
72604;DHT22;60645;56.968;24.196;2022-10-17T12:42:46;20.70;49.70
72604;DHT22;60645;56.968;24.196;2022-10-17T12:49:23;20.50;50.70
72604;DHT22;60645;56.968;24.196;2022-10-17T12:52:51;20.50;50.30
72604;DHT22;60645;56.968;24.196;2022-10-17T12:56:00;20.50;49.50
72604;DHT22;60645;56.968;24.196;2022-10-17T12:58:56;20.30;50.10
72604;DHT22;60645;56.968;24.196;2022-10-17T13:01:57;20.30;50.20
72604;DHT22;60645;56.968;24.196;2022-10-17T13:05:27;20.20;49.80
72604;DHT22;60645;56.968;24.196;2022-10-17T13:12:04;20.10;50.50
72604;DHT22;60645;56.968;24.196;2022-10-17T13:14:57;20.20;50.00
72604;DHT22;60645;56.968;24.196;2022-10-17T13:18:18;20.10;49.70
72604;DHT22;60645;56.968;24.196;2022-10-17T13:21:00;20.10;50.50
72604;DHT22;60645;56.968;24.196;2022-10-17T13:24:00;20.10;49.40
72604;DHT22;60645;56.968;24.196;2022-10-17T13:26:59;20.10;49.80
72604;DHT22;60645;56.968;24.196;2022-10-17T13:29:49;20.10;50.50
72604;DHT22;60645;56.968;24.196;2022-10-17T13:32:40;20.00;49.60
72604;DHT22;60645;56.968;24.196;2022-10-17T13:35:47;19.90;50.70
72604;DHT22;60645;56.968;24.196;2022-10-17T13:39:05;19.80;50.30
72604;DHT22;60645;56.968;24.196;2022-10-17T13:41:56;19.80;49.60
72604;DHT22;60645;56.968;24.196;2022-10-17T13:44:58;19.80;50.10
72604;DHT22;60645;56.968;24.196;2022-10-17T13:47:47;19.70;50.30
72604;DHT22;60645;56.968;24.196;2022-10-17T13:50:43;19.70;49.80
72604;DHT22;60645;56.968;24.196;2022-10-17T13:53:36;19.60;49.70
72604;DHT22;60645;56.968;24.196;2022-10-17T13:59:41;19.70;53.50
72604;DHT22;60645;56.968;24.196;2022-10-17T14:02:35;19.80;54.10
72604;DHT22;60645;56.968;24.196;2022-10-17T14:05:56;20.00;54.40
72604;DHT22;60645;56.968;24.196;2022-10-17T14:08:59;20.00;54.40
72604;DHT22;60645;56.968;24.196;2022-10-17T14:15:12;20.10;54.80
72604;DHT22;60645;56.968;24.196;2022-10-17T14:17:52;20.10;55.20
72604;DHT22;60645;56.968;24.196;2022-10-17T14:20:58;20.20;55.40
72604;DHT22;60645;56.968;24.196;2022-10-17T14:27:51;20.30;55.10
72604;DHT22;60645;56.968;24.196;2022-10-17T14:34:38;20.20;55.10
72604;DHT22;60645;56.968;24.196;2022-10-17T14:37:48;20.20;55.10
72604;DHT22;60645;56.968;24.196;2022-10-17T14:41:14;20.20;55.10
72604;DHT22;60645;56.968;24.196;2022-10-17T14:44:34;20.10;55.30
72604;DHT22;60645;56.968;24.196;2022-10-17T14:47:33;20.20;55.50
72604;DHT22;60645;56.968;24.196;2022-10-17T14:50:35;20.20;55.70
72604;DHT22;60645;56.968;24.196;2022-10-17T14:56:39;20.20;55.80
72604;DHT22;60645;56.968;24.196;2022-10-17T14:59:47;20.20;56.00
72604;DHT22;60645;56.968;24.196;2022-10-17T15:02:28;20.20;56.60
72604;DHT22;60645;56.968;24.196;2022-10-17T15:05:43;20.10;57.20
72604;DHT22;60645;56.968;24.196;2022-10-17T15:08:45;20.10;57.50
72604;DHT22;60645;56.968;24.196;2022-10-17T15:11:41;20.20;58.00
72604;DHT22;60645;56.968;24.196;2022-10-17T15:14:29;20.20;57.90
72604;DHT22;60645;56.968;24.196;2022-10-17T15:17:35;20.30;58.10
72604;DHT22;60645;56.968;24.196;2022-10-17T15:20:48;20.20;58.10
72604;DHT22;60645;56.968;24.196;2022-10-17T15:23:41;20.20;58.40
72604;DHT22;60645;56.968;24.196;2022-10-17T15:26:36;20.30;58.20
72604;DHT22;60645;56.968;24.196;2022-10-17T15:29:23;20.20;58.20
72604;DHT22;60645;56.968;24.196;2022-10-17T15:32:37;20.30;58.30
72604;DHT22;60645;56.968;24.196;2022-10-17T15:42:28;20.30;58.30
72604;DHT22;60645;56.968;24.196;2022-10-17T15:45:43;20.30;58.30
72604;DHT22;60645;56.968;24.196;2022-10-17T15:48:31;20.30;58.50
72604;DHT22;60645;56.968;24.196;2022-10-17T15:51:19;20.30;58.40
72604;DHT22;60645;56.968;24.196;2022-10-17T15:54:34;20.30;58.00
72604;DHT22;60645;56.968;24.196;2022-10-17T16:00:49;20.10;58.30
72604;DHT22;60645;56.968;24.196;2022-10-17T16:04:02;20.10;58.30
72604;DHT22;60645;56.968;24.196;2022-10-17T16:07:06;20.00;58.30
72604;DHT22;60645;56.968;24.196;2022-10-17T16:10:12;20.10;58.30
72604;DHT22;60645;56.968;24.196;2022-10-17T16:13:31;20.00;58.40
72604;DHT22;60645;56.968;24.196;2022-10-17T16:16:31;20.00;58.60
72604;DHT22;60645;56.968;24.196;2022-10-17T16:19:54;20.00;58.60
72604;DHT22;60645;56.968;24.196;2022-10-17T16:23:05;19.90;58.70
72604;DHT22;60645;56.968;24.196;2022-10-17T16:25:55;20.00;58.50
72604;DHT22;60645;56.968;24.196;2022-10-17T16:29:07;19.90;58.80
72604;DHT22;60645;56.968;24.196;2022-10-17T16:32:23;19.90;58.70
72604;DHT22;60645;56.968;24.196;2022-10-17T16:35:35;19.90;58.70
72604;DHT22;60645;56.968;24.196;2022-10-17T16:38:28;20.00;58.70
72604;DHT22;60645;56.968;24.196;2022-10-17T16:41:35;20.00;58.60
72604;DHT22;60645;56.968;24.196;2022-10-17T16:44:54;20.00;58.80
72604;DHT22;60645;56.968;24.196;2022-10-17T16:47:47;20.00;58.70
72604;DHT22;60645;56.968;24.196;2022-10-17T16:51:01;20.10;58.90
72604;DHT22;60645;56.968;24.196;2022-10-17T16:53:55;20.00;58.70
72604;DHT22;60645;56.968;24.196;2022-10-17T16:57:03;20.00;58.70
72604;DHT22;60645;56.968;24.196;2022-10-17T16:59:52;20.00;58.60
72604;DHT22;60645;56.968;24.196;2022-10-17T17:02:28;20.00;58.70
72604;DHT22;60645;56.968;24.196;2022-10-17T17:05:18;20.10;58.80
72604;DHT22;60645;56.968;24.196;2022-10-17T17:08:23;20.00;58.70
72604;DHT22;60645;56.968;24.196;2022-10-17T17:11:17;20.10;58.80
72604;DHT22;60645;56.968;24.196;2022-10-17T17:14:09;19.90;58.80
72604;DHT22;60645;56.968;24.196;2022-10-17T17:17:03;20.00;58.70
72604;DHT22;60645;56.968;24.196;2022-10-17T17:20:05;20.00;58.70
72604;DHT22;60645;56.968;24.196;2022-10-17T17:23:00;20.00;58.90
72604;DHT22;60645;56.968;24.196;2022-10-17T17:26:14;20.00;58.80
72604;DHT22;60645;56.968;24.196;2022-10-17T17:29:33;20.00;59.00
72604;DHT22;60645;56.968;24.196;2022-10-17T17:32:28;20.00;58.90
72604;DHT22;60645;56.968;24.196;2022-10-17T17:35:27;20.00;58.90
72604;DHT22;60645;56.968;24.196;2022-10-17T17:38:17;20.00;59.00
72604;DHT22;60645;56.968;24.196;2022-10-17T17:41:16;20.00;59.10
72604;DHT22;60645;56.968;24.196;2022-10-17T17:44:18;20.00;59.00
72604;DHT22;60645;56.968;24.196;2022-10-17T17:47:14;20.00;59.00
72604;DHT22;60645;56.968;24.196;2022-10-17T17:50:17;20.00;59.00
72604;DHT22;60645;56.968;24.196;2022-10-17T17:53:18;20.00;59.00
72604;DHT22;60645;56.968;24.196;2022-10-17T17:56:37;20.00;59.10
72604;DHT22;60645;56.968;24.196;2022-10-17T17:59:46;20.00;59.00
72604;DHT22;60645;56.968;24.196;2022-10-17T18:02:51;20.00;58.90
72604;DHT22;60645;56.968;24.196;2022-10-17T18:05:56;20.00;59.00
72604;DHT22;60645;56.968;24.196;2022-10-17T18:08:47;19.90;59.20
72604;DHT22;60645;56.968;24.196;2022-10-17T18:11:45;20.00;59.40
72604;DHT22;60645;56.968;24.196;2022-10-17T18:14:50;19.30;54.00
72604;DHT22;60645;56.968;24.196;2022-10-17T18:17:59;18.30;56.70
72604;DHT22;60645;56.968;24.196;2022-10-17T18:20:43;17.10;59.40
72604;DHT22;60645;56.968;24.196;2022-10-17T18:23:41;16.50;61.50
72604;DHT22;60645;56.968;24.196;2022-10-17T18:26:49;16.10;62.40
72604;DHT22;60645;56.968;24.196;2022-10-17T18:32:37;15.40;65.00
72604;DHT22;60645;56.968;24.196;2022-10-17T18:35:44;15.20;66.10
72604;DHT22;60645;56.968;24.196;2022-10-17T18:41:39;14.70;67.90
72604;DHT22;60645;56.968;24.196;2022-10-17T18:44:33;14.90;67.40
72604;DHT22;60645;56.968;24.196;2022-10-17T18:47:58;14.60;68.60
72604;DHT22;60645;56.968;24.196;2022-10-17T18:51:13;14.30;69.80
72604;DHT22;60645;56.968;24.196;2022-10-17T18:54:27;14.10;69.80
72604;DHT22;60645;56.968;24.196;2022-10-17T18:57:21;14.30;70.10
72604;DHT22;60645;56.968;24.196;2022-10-17T19:00:06;14.30;69.80
72604;DHT22;60645;56.968;24.196;2022-10-17T19:02:43;14.60;73.40
72604;DHT22;60645;56.968;24.196;2022-10-17T19:05:38;15.20;73.30
72604;DHT22;60645;56.968;24.196;2022-10-17T19:08:50;15.70;71.80
72604;DHT22;60645;56.968;24.196;2022-10-17T19:11:37;16.20;70.80
72604;DHT22;60645;56.968;24.196;2022-10-17T19:14:26;16.60;69.90
72604;DHT22;60645;56.968;24.196;2022-10-17T19:17:31;16.90;69.20
72604;DHT22;60645;56.968;24.196;2022-10-17T19:20:37;17.20;68.60
72604;DHT22;60645;56.968;24.196;2022-10-17T19:23:50;17.40;68.00
72604;DHT22;60645;56.968;24.196;2022-10-17T19:26:56;17.70;67.40
72604;DHT22;60645;56.968;24.196;2022-10-17T19:32:37;18.10;66.70
72604;DHT22;60645;56.968;24.196;2022-10-17T19:35:29;18.20;65.50
72604;DHT22;60645;56.968;24.196;2022-10-17T19:38:34;18.40;65.10
72604;DHT22;60645;56.968;24.196;2022-10-17T19:41:39;18.30;64.30
72604;DHT22;60645;56.968;24.196;2022-10-17T19:44:34;18.40;63.90
72604;DHT22;60645;56.968;24.196;2022-10-17T19:47:32;18.40;64.10
72604;DHT22;60645;56.968;24.196;2022-10-17T19:50:35;18.50;64.00
72604;DHT22;60645;56.968;24.196;2022-10-17T19:53:41;18.60;63.70
72604;DHT22;60645;56.968;24.196;2022-10-17T19:59:42;18.60;63.60
72604;DHT22;60645;56.968;24.196;2022-10-17T20:02:33;18.50;63.60
72604;DHT22;60645;56.968;24.196;2022-10-17T20:05:18;18.60;63.60
72604;DHT22;60645;56.968;24.196;2022-10-17T20:08:26;18.70;63.60
72604;DHT22;60645;56.968;24.196;2022-10-17T20:11:27;18.60;63.40
72604;DHT22;60645;56.968;24.196;2022-10-17T20:14:37;18.70;63.30
72604;DHT22;60645;56.968;24.196;2022-10-17T20:17:17;18.70;63.50
72604;DHT22;60645;56.968;24.196;2022-10-17T20:20:29;18.70;63.40
72604;DHT22;60645;56.968;24.196;2022-10-17T20:23:31;18.70;63.40
72604;DHT22;60645;56.968;24.196;2022-10-17T20:26:31;18.70;63.60
72604;DHT22;60645;56.968;24.196;2022-10-17T20:29:26;18.70;63.40
72604;DHT22;60645;56.968;24.196;2022-10-17T20:32:20;18.70;63.50
72604;DHT22;60645;56.968;24.196;2022-10-17T20:35:14;18.80;63.60
72604;DHT22;60645;56.968;24.196;2022-10-17T20:38:21;18.80;63.60
72604;DHT22;60645;56.968;24.196;2022-10-17T20:41:31;18.80;63.50
72604;DHT22;60645;56.968;24.196;2022-10-17T20:44:33;18.80;63.60
72604;DHT22;60645;56.968;24.196;2022-10-17T20:48:13;18.90;63.60
72604;DHT22;60645;56.968;24.196;2022-10-17T20:51:19;18.80;63.80
72604;DHT22;60645;56.968;24.196;2022-10-17T20:54:28;18.90;63.80
72604;DHT22;60645;56.968;24.196;2022-10-17T20:57:39;18.80;63.80
72604;DHT22;60645;56.968;24.196;2022-10-17T21:00:44;18.80;63.80
72604;DHT22;60645;56.968;24.196;2022-10-17T21:03:35;18.80;64.10
72604;DHT22;60645;56.968;24.196;2022-10-17T21:06:17;18.90;64.00
72604;DHT22;60645;56.968;24.196;2022-10-17T21:08:58;18.80;64.00
72604;DHT22;60645;56.968;24.196;2022-10-17T21:12:03;18.80;64.10
72604;DHT22;60645;56.968;24.196;2022-10-17T21:15:28;18.80;64.00
72604;DHT22;60645;56.968;24.196;2022-10-17T21:18:57;18.80;63.90
72604;DHT22;60645;56.968;24.196;2022-10-17T21:22:05;18.80;64.20
72604;DHT22;60645;56.968;24.196;2022-10-17T21:25:28;18.90;64.20
72604;DHT22;60645;56.968;24.196;2022-10-17T21:28:15;18.90;64.40
72604;DHT22;60645;56.968;24.196;2022-10-17T21:31:10;18.90;64.40
72604;DHT22;60645;56.968;24.196;2022-10-17T21:34:31;18.90;64.20
72604;DHT22;60645;56.968;24.196;2022-10-17T21:37:26;18.90;64.50
72604;DHT22;60645;56.968;24.196;2022-10-17T21:43:41;18.90;64.60